createdAt,value
2022-09-07T00:00:05.337Z,0.00
2022-09-07T00:01:05.288Z,0.00
2022-09-07T00:02:05.227Z,0.00
2022-09-07T00:03:05.253Z,0.00
2022-09-07T00:04:05.270Z,0.00
2022-09-07T00:05:05.146Z,0.00
2022-09-07T00:06:05.035Z,0.00
2022-09-07T00:07:05.007Z,0.00
2022-09-07T00:08:04.938Z,0.00
2022-09-07T00:09:04.931Z,0.00
2022-09-07T00:10:04.854Z,0.00
2022-09-07T00:11:04.812Z,0.00
2022-09-07T00:12:04.750Z,0.00
2022-09-07T00:13:04.727Z,0.00
2022-09-07T00:14:04.652Z,0.00
2022-09-07T00:15:04.635Z,0.00
2022-09-07T00:16:04.610Z,0.00
2022-09-07T00:17:04.502Z,0.00
2022-09-07T00:18:04.460Z,0.00
2022-09-07T00:19:04.415Z,0.00
2022-09-07T00:20:04.374Z,0.00
2022-09-07T00:21:04.334Z,0.00
2022-09-07T00:22:04.251Z,0.00
2022-09-07T00:23:04.222Z,0.00
2022-09-07T00:24:04.197Z,0.00
2022-09-07T00:25:04.146Z,0.00
2022-09-07T00:26:04.075Z,0.00
2022-09-07T00:27:04.009Z,0.00
2022-09-07T00:28:03.983Z,0.00
2022-09-07T00:29:03.926Z,0.00
2022-09-07T00:30:03.916Z,0.00
2022-09-07T00:31:03.863Z,0.00
2022-09-07T00:32:03.760Z,0.00
2022-09-07T00:33:03.749Z,0.00
2022-09-07T00:34:03.686Z,0.00
2022-09-07T00:35:03.655Z,0.00
2022-09-07T00:36:03.587Z,0.00
2022-09-07T00:37:03.566Z,0.00
2022-09-07T00:38:03.473Z,0.00
2022-09-07T00:39:03.454Z,0.00
2022-09-07T00:40:03.497Z,0.00
2022-09-07T00:41:03.345Z,0.00
2022-09-07T00:42:03.306Z,0.00
2022-09-07T00:43:03.243Z,0.00
2022-09-07T00:44:03.185Z,0.00
2022-09-07T00:45:03.171Z,0.00
2022-09-07T00:46:03.148Z,0.00
2022-09-07T00:47:03.059Z,0.00
2022-09-07T00:48:03.004Z,0.00
2022-09-07T00:49:02.959Z,0.00
2022-09-07T00:50:03.013Z,0.00
2022-09-07T00:51:02.848Z,0.00
2022-09-07T00:52:02.834Z,0.00
2022-09-07T00:53:02.764Z,0.00
2022-09-07T00:54:02.703Z,0.00
2022-09-07T00:55:02.683Z,0.00
2022-09-07T00:56:02.636Z,0.00
2022-09-07T00:57:02.596Z,0.00
2022-09-07T00:58:02.520Z,0.00
2022-09-07T00:59:02.499Z,0.00
2022-09-07T01:00:02.423Z,0.00
2022-09-07T01:01:02.380Z,0.00
2022-09-07T01:02:02.462Z,0.00
2022-09-07T01:03:02.462Z,0.00
2022-09-07T01:04:02.210Z,0.00
2022-09-07T01:05:04.496Z,0.00
2022-09-07T01:06:02.125Z,0.00
2022-09-07T01:07:02.103Z,0.00
2022-09-07T01:08:02.014Z,0.00
2022-09-07T01:09:01.983Z,0.00
2022-09-07T01:10:01.962Z,0.00
2022-09-07T01:11:01.888Z,0.00
2022-09-07T01:12:01.864Z,0.00
2022-09-07T01:13:01.790Z,0.00
2022-09-07T01:14:01.731Z,0.00
2022-09-07T01:15:01.764Z,0.00
2022-09-07T01:16:02.047Z,0.00
2022-09-07T01:17:01.600Z,0.00
2022-09-07T01:18:01.566Z,0.00
2022-09-07T01:19:01.490Z,0.00
2022-09-07T01:20:01.473Z,0.00
2022-09-07T01:21:01.400Z,0.00
2022-09-07T01:22:01.330Z,0.00
2022-09-07T01:23:01.311Z,0.00
2022-09-07T01:24:01.256Z,0.00
2022-09-07T01:25:01.216Z,0.00
2022-09-07T01:26:01.175Z,0.00
2022-09-07T01:27:01.104Z,0.00
2022-09-07T01:28:01.069Z,0.00
2022-09-07T01:29:01.031Z,0.00
2022-09-07T01:30:00.971Z,0.00
2022-09-07T01:31:00.944Z,0.00
2022-09-07T01:32:00.865Z,0.00
2022-09-07T01:33:00.839Z,0.00
2022-09-07T01:34:00.755Z,0.00
2022-09-07T01:35:00.750Z,0.00
2022-09-07T01:36:00.664Z,0.00
2022-09-07T01:37:00.617Z,0.00
2022-09-07T01:38:00.574Z,0.00
2022-09-07T01:39:00.509Z,0.00
2022-09-07T01:40:00.599Z,0.00
2022-09-07T01:41:00.421Z,0.00
2022-09-07T01:42:00.376Z,0.00
2022-09-07T01:43:00.323Z,0.00
2022-09-07T01:44:00.278Z,0.00
2022-09-07T01:45:00.256Z,0.00
2022-09-07T01:46:00.211Z,0.00
2022-09-07T01:47:00.126Z,0.00
2022-09-07T01:48:00.089Z,0.00
2022-09-07T01:49:00.020Z,0.00
2022-09-07T01:50:00.002Z,0.00
2022-09-07T01:50:59.912Z,0.00
2022-09-07T01:51:59.889Z,0.00
2022-09-07T01:52:59.844Z,0.00
2022-09-07T01:53:59.793Z,0.00
2022-09-07T01:54:59.749Z,0.00
2022-09-07T01:55:59.716Z,0.00
2022-09-07T01:56:59.628Z,0.00
2022-09-07T01:57:59.601Z,0.00
2022-09-07T01:58:59.527Z,0.00
2022-09-07T01:59:59.505Z,0.00
2022-09-07T02:00:59.467Z,0.00
2022-09-07T02:01:59.442Z,0.00
2022-09-07T02:02:59.542Z,0.00
2022-09-07T02:03:59.291Z,0.00
2022-09-07T02:04:59.229Z,0.00
2022-09-07T02:05:59.229Z,0.00
2022-09-07T02:06:59.155Z,0.00
2022-09-07T02:07:59.116Z,0.00
2022-09-07T02:08:59.044Z,0.00
2022-09-07T02:09:59.009Z,0.00
2022-09-07T02:10:58.983Z,0.00
2022-09-07T02:11:58.934Z,0.00
2022-09-07T02:12:58.857Z,0.00
2022-09-07T02:13:58.801Z,0.00
2022-09-07T02:14:58.742Z,0.00
2022-09-07T02:15:58.798Z,0.00
2022-09-07T02:16:58.691Z,0.00
2022-09-07T02:17:58.613Z,0.00
2022-09-07T02:18:58.591Z,0.00
2022-09-07T02:19:58.513Z,0.00
2022-09-07T02:25:19.579Z,0.00
2022-09-07T02:26:19.537Z,0.00
2022-09-07T02:27:19.449Z,0.00
2022-09-07T02:28:19.419Z,0.00
2022-09-07T02:29:19.355Z,0.00
2022-09-07T02:30:19.337Z,0.00
2022-09-07T02:31:19.322Z,0.00
2022-09-07T02:32:19.210Z,0.00
2022-09-07T02:33:19.157Z,0.00
2022-09-07T02:34:19.143Z,0.00
2022-09-07T02:35:19.093Z,0.00
2022-09-07T02:36:19.028Z,0.00
2022-09-07T02:37:18.992Z,0.00
2022-09-07T02:38:18.919Z,0.00
2022-09-07T02:39:18.860Z,0.00
2022-09-07T02:40:18.882Z,0.00
2022-09-07T02:41:18.784Z,0.00
2022-09-07T02:42:18.753Z,0.00
2022-09-07T02:43:18.667Z,0.00
2022-09-07T02:44:18.637Z,0.00
2022-09-07T02:45:18.577Z,0.00
2022-09-07T02:46:18.619Z,0.00
2022-09-07T02:47:18.487Z,0.00
2022-09-07T02:48:18.438Z,0.00
2022-09-07T02:49:18.417Z,0.00
2022-09-07T02:50:18.342Z,0.00
2022-09-07T02:51:18.312Z,0.00
2022-09-07T02:52:18.236Z,0.00
2022-09-07T02:53:18.199Z,0.00
2022-09-07T02:54:18.170Z,0.00
2022-09-07T02:55:18.103Z,0.00
2022-09-07T02:56:18.037Z,0.00
2022-09-07T02:57:17.973Z,0.00
2022-09-07T02:58:17.981Z,0.00
2022-09-07T02:59:17.891Z,0.00
2022-09-07T03:00:17.861Z,0.00
2022-09-07T03:01:17.809Z,0.00
2022-09-07T03:02:17.819Z,0.00
2022-09-07T03:03:17.699Z,0.00
2022-09-07T03:04:17.658Z,0.00
2022-09-07T03:05:25.236Z,0.00
2022-09-07T03:06:17.540Z,0.00
2022-09-07T03:07:17.476Z,0.00
2022-09-07T03:08:17.434Z,0.00
2022-09-07T03:09:17.381Z,0.00
2022-09-07T03:10:17.344Z,0.00
2022-09-07T03:11:17.293Z,0.00
2022-09-07T03:12:17.233Z,0.00
2022-09-07T03:13:17.180Z,0.00
2022-09-07T03:14:17.134Z,0.00
2022-09-07T03:15:17.097Z,0.00
2022-09-07T03:16:17.081Z,0.00
2022-09-07T03:17:17.001Z,0.00
2022-09-07T03:18:16.948Z,0.00
2022-09-07T03:19:16.886Z,0.00
2022-09-07T03:20:16.838Z,0.00
2022-09-07T03:21:16.801Z,0.00
2022-09-07T03:22:16.741Z,0.00
2022-09-07T03:23:16.692Z,0.00
2022-09-07T03:24:16.644Z,0.00
2022-09-07T03:25:16.595Z,0.00
2022-09-07T03:26:16.565Z,0.00
2022-09-07T03:27:16.495Z,0.00
2022-09-07T03:28:16.445Z,0.00
2022-09-07T03:29:16.399Z,0.00
2022-09-07T03:30:16.350Z,0.00
2022-09-07T03:31:16.318Z,0.00
2022-09-07T03:32:16.262Z,0.00
2022-09-07T03:33:16.204Z,0.00
2022-09-07T03:34:16.152Z,0.00
2022-09-07T03:35:16.102Z,0.00
2022-09-07T03:36:16.072Z,0.00
2022-09-07T03:37:16.067Z,0.00
2022-09-07T03:38:15.956Z,0.00
2022-09-07T03:39:15.908Z,0.00
2022-09-07T03:40:15.978Z,0.00
2022-09-07T03:41:15.822Z,0.00
2022-09-07T03:42:15.763Z,0.00
2022-09-07T03:43:15.712Z,0.00
2022-09-07T03:44:15.664Z,0.00
2022-09-07T03:45:15.617Z,0.00
2022-09-07T03:46:15.659Z,0.00
2022-09-07T03:47:15.518Z,0.00
2022-09-07T03:48:15.479Z,0.00
2022-09-07T03:49:15.422Z,0.00
2022-09-07T03:50:15.374Z,0.00
2022-09-07T03:51:15.323Z,0.00
2022-09-07T03:52:15.292Z,0.00
2022-09-07T03:53:15.237Z,0.00
2022-09-07T03:54:15.193Z,0.00
2022-09-07T03:55:15.130Z,0.00
2022-09-07T03:56:15.083Z,0.00
2022-09-07T03:57:15.032Z,0.00
2022-09-07T03:58:14.984Z,0.00
2022-09-07T03:59:14.945Z,0.00
2022-09-07T04:00:14.901Z,0.00
2022-09-07T04:01:14.889Z,0.00
2022-09-07T04:02:14.831Z,0.00
2022-09-07T04:03:14.751Z,0.00
2022-09-07T04:04:14.697Z,0.00
2022-09-07T04:05:14.667Z,0.00
2022-09-07T04:06:14.599Z,0.00
2022-09-07T04:07:14.558Z,0.00
2022-09-07T04:08:14.503Z,0.00
2022-09-07T04:09:14.450Z,0.00
2022-09-07T04:10:14.405Z,0.00
2022-09-07T04:11:14.353Z,0.00
2022-09-07T04:12:14.316Z,0.00
2022-09-07T04:13:14.257Z,0.00
2022-09-07T04:14:14.211Z,0.00
2022-09-07T04:15:14.195Z,0.00
2022-09-07T04:16:14.113Z,0.00
2022-09-07T04:17:14.182Z,0.00
2022-09-07T04:18:14.022Z,0.00
2022-09-07T04:19:13.986Z,0.00
2022-09-07T04:20:13.923Z,0.00
2022-09-07T04:21:13.874Z,0.00
2022-09-07T04:22:13.839Z,0.00
2022-09-07T04:23:13.776Z,0.00
2022-09-07T04:24:13.742Z,0.00
2022-09-07T04:25:13.679Z,0.00
2022-09-07T04:26:13.630Z,0.00
2022-09-07T04:27:13.581Z,0.00
2022-09-07T04:28:13.532Z,4.00
2022-09-07T04:29:13.497Z,0.00
2022-09-07T04:30:13.435Z,4.00
2022-09-07T04:31:13.477Z,4.00
2022-09-07T04:32:15.837Z,4.00
2022-09-07T04:33:13.289Z,4.00
2022-09-07T04:34:13.257Z,8.00
2022-09-07T04:35:13.190Z,4.00
2022-09-07T04:36:13.144Z,4.00
2022-09-07T04:37:13.097Z,8.00
2022-09-07T04:38:13.048Z,8.00
2022-09-07T04:39:13.015Z,12.00
2022-09-07T04:40:13.000Z,16.00
2022-09-07T04:41:12.901Z,20.00
2022-09-07T04:42:12.852Z,24.00
2022-09-07T04:43:12.799Z,28.00
2022-09-07T04:44:16.794Z,32.00
2022-09-07T04:45:12.719Z,36.00
2022-09-07T04:46:12.764Z,44.00
2022-09-07T04:47:12.609Z,48.00
2022-09-07T04:48:12.561Z,56.00
2022-09-07T04:49:12.520Z,60.00
2022-09-07T04:50:12.478Z,64.00
2022-09-07T04:51:12.411Z,72.00
2022-09-07T04:52:12.363Z,80.00
2022-09-07T04:53:12.316Z,88.00
2022-09-07T04:54:12.266Z,92.00
2022-09-07T04:55:12.230Z,100.00
2022-09-07T04:56:16.801Z,100.00
2022-09-07T04:57:12.121Z,104.00
2022-09-07T04:58:12.069Z,108.00
2022-09-07T04:59:12.043Z,116.00
2022-09-07T05:00:11.973Z,124.00
2022-09-07T05:01:11.972Z,132.00
2022-09-07T05:02:11.954Z,140.00
2022-09-07T05:03:11.829Z,156.00
2022-09-07T05:04:11.778Z,164.00
2022-09-07T05:05:11.747Z,172.00
2022-09-07T05:06:11.684Z,180.00
2022-09-07T05:07:11.643Z,188.00
2022-09-07T05:08:11.581Z,204.00
2022-09-07T05:09:11.532Z,216.00
2022-09-07T05:10:11.481Z,232.00
2022-09-07T05:11:11.458Z,248.00
2022-09-07T05:12:11.385Z,260.00
2022-09-07T05:13:11.338Z,276.00
2022-09-07T05:14:11.287Z,292.00
2022-09-07T05:15:11.243Z,308.00
2022-09-07T05:16:11.267Z,328.00
2022-09-07T05:17:11.140Z,344.00
2022-09-07T05:18:11.088Z,364.00
2022-09-07T05:19:11.042Z,388.00
2022-09-07T05:20:11.004Z,412.00
2022-09-07T05:21:10.956Z,444.00
2022-09-07T05:22:10.911Z,476.00
2022-09-07T05:23:10.844Z,504.00
2022-09-07T05:24:10.799Z,532.00
2022-09-07T05:25:10.747Z,564.00
2022-09-07T05:26:10.696Z,600.00
2022-09-07T05:27:10.663Z,628.00
2022-09-07T05:28:10.597Z,656.00
2022-09-07T05:31:18.308Z,700.00
2022-09-07T05:32:10.401Z,712.00
2022-09-07T05:33:10.352Z,740.00
2022-09-07T05:35:10.253Z,812.00
2022-09-07T05:36:10.224Z,848.00
2022-09-07T05:37:10.172Z,904.00
2022-09-07T05:38:10.105Z,952.00
2022-09-07T05:39:10.053Z,960.00
2022-09-07T05:40:10.048Z,988.00
2022-09-07T05:41:09.956Z,984.00
2022-09-07T05:42:09.923Z,996.00
2022-09-07T05:43:09.856Z,1068.00
2022-09-07T05:45:09.784Z,1160.00
2022-09-07T05:46:09.758Z,1228.00
2022-09-07T05:47:09.674Z,1272.00
2022-09-07T05:48:09.622Z,1248.00
2022-09-07T05:49:09.562Z,1200.00
2022-09-07T05:50:09.513Z,1200.00
2022-09-07T05:51:09.465Z,1180.00
2022-09-07T05:52:09.427Z,1128.00
2022-09-07T05:53:09.365Z,1088.00
2022-09-07T05:54:09.314Z,1084.00
2022-09-07T05:55:28.981Z,1028.00
2022-09-07T05:56:09.217Z,968.00
2022-09-07T05:57:09.182Z,1008.00
2022-09-07T05:58:09.120Z,1040.00
2022-09-07T05:59:09.071Z,1032.00
2022-09-07T06:00:09.020Z,1032.00
2022-09-07T06:01:08.971Z,1044.00
2022-09-07T06:02:08.988Z,1112.00
2022-09-07T06:03:09.044Z,1164.00
2022-09-07T06:04:08.818Z,1228.00
2022-09-07T06:05:08.770Z,1328.00
2022-09-07T06:06:08.727Z,1448.00
2022-09-07T06:07:21.585Z,1592.00
2022-09-07T06:08:08.622Z,1736.00
2022-09-07T06:09:08.584Z,1868.00
2022-09-07T06:11:08.517Z,2028.00
2022-09-07T06:12:08.428Z,2088.00
2022-09-07T06:13:08.377Z,2156.00
2022-09-07T06:14:08.334Z,2236.00
2022-09-07T06:15:08.294Z,2360.00
2022-09-07T06:16:08.288Z,2432.00
2022-09-07T06:17:08.184Z,2436.00
2022-09-07T06:18:08.132Z,2476.00
2022-09-07T06:19:08.083Z,2500.00
2022-09-07T06:20:08.046Z,2548.00
2022-09-07T06:21:07.984Z,2692.00
2022-09-07T06:22:07.936Z,2832.00
2022-09-07T06:23:07.886Z,2960.00
2022-09-07T06:24:07.835Z,2640.00
2022-09-07T06:25:07.803Z,2540.00
2022-09-07T06:26:07.739Z,2536.00
2022-09-07T06:27:07.703Z,2576.00
2022-09-07T06:28:07.639Z,2544.00
2022-09-07T06:29:07.592Z,2412.00
2022-09-07T06:30:07.546Z,2400.00
2022-09-07T06:31:07.489Z,2376.00
2022-09-07T06:33:07.398Z,2360.00
2022-09-07T06:34:07.342Z,2420.00
2022-09-07T06:35:07.294Z,2476.00
2022-09-07T06:36:07.243Z,2512.00
2022-09-07T06:37:07.209Z,2528.00
2022-09-07T06:38:07.149Z,2520.00
2022-09-07T06:39:07.096Z,2524.00
2022-09-07T06:40:07.107Z,2556.00
2022-09-07T06:42:06.946Z,2604.00
2022-09-07T06:43:06.898Z,2680.00
2022-09-07T06:44:06.849Z,2712.00
2022-09-07T06:45:06.815Z,2740.00
2022-09-07T06:47:06.731Z,2772.00
2022-09-07T06:48:06.650Z,2788.00
2022-09-07T06:49:06.605Z,2788.00
2022-09-07T06:50:06.561Z,2780.00
2022-09-07T06:51:06.515Z,2772.00
2022-09-07T06:52:06.512Z,2780.00
2022-09-07T06:55:06.307Z,2828.00
2022-09-07T06:56:06.272Z,2940.00
2022-09-07T06:57:06.225Z,3116.00
2022-09-07T06:58:06.155Z,3236.00
2022-09-07T06:59:06.107Z,3280.00
2022-09-07T07:00:06.064Z,3112.00
2022-09-07T07:01:06.063Z,2968.00
2022-09-07T07:02:05.978Z,3152.00
2022-09-07T07:03:05.952Z,3544.00
2022-09-07T07:04:05.860Z,3984.00
2022-09-07T07:05:05.810Z,4196.00
2022-09-07T07:06:05.776Z,4364.00
2022-09-07T07:07:05.710Z,4528.00
2022-09-07T07:08:05.676Z,4444.00
2022-09-07T07:09:05.626Z,4328.00
2022-09-07T07:10:05.564Z,4132.00
2022-09-07T07:11:05.527Z,4120.00
2022-09-07T07:12:05.498Z,3988.00
2022-09-07T07:13:05.424Z,3792.00
2022-09-07T07:14:05.384Z,3688.00
2022-09-07T07:15:05.321Z,3556.00
2022-09-07T07:16:05.336Z,3584.00
2022-09-07T07:17:05.221Z,3532.00
2022-09-07T07:18:19.792Z,3480.00
2022-09-07T07:19:05.121Z,3448.00
2022-09-07T07:20:05.072Z,3452.00
2022-09-07T07:21:05.019Z,3460.00
2022-09-07T07:22:18.642Z,3464.00
2022-09-07T07:23:04.923Z,3468.00
2022-09-07T07:24:08.074Z,3476.00
2022-09-07T07:25:04.824Z,3496.00
2022-09-07T07:26:04.774Z,3520.00
2022-09-07T07:27:04.744Z,3556.00
2022-09-07T07:29:04.667Z,3616.00
2022-09-07T07:30:04.580Z,3660.00
2022-09-07T07:31:08.805Z,3720.00
2022-09-07T07:32:04.479Z,3808.00
2022-09-07T07:33:04.456Z,3820.00
2022-09-07T07:34:04.472Z,3840.00
2022-09-07T07:35:04.336Z,3868.00
2022-09-07T07:36:04.286Z,3924.00
2022-09-07T07:37:04.240Z,3988.00
2022-09-07T07:39:04.542Z,4200.00
2022-09-07T07:40:21.987Z,4324.00
2022-09-07T07:42:05.873Z,4516.00
2022-09-07T07:43:04.349Z,4716.00
2022-09-07T07:44:03.908Z,4972.00
2022-09-07T07:46:06.047Z,5332.00
2022-09-07T07:47:03.894Z,5360.00
2022-09-07T07:48:03.700Z,5592.00
2022-09-07T07:49:03.664Z,5652.00
2022-09-07T07:51:09.797Z,5776.00
2022-09-07T07:54:03.409Z,6248.00
2022-09-07T07:55:43.024Z,6020.00
2022-09-07T07:56:03.325Z,6388.00
2022-09-07T07:57:03.279Z,6968.00
2022-09-07T07:58:03.216Z,7156.00
2022-09-07T07:59:03.169Z,6708.00
2022-09-07T08:00:03.124Z,6940.00
2022-09-07T08:01:03.159Z,7772.00
2022-09-07T08:02:03.195Z,8484.00
2022-09-07T08:03:02.989Z,8016.00
2022-09-07T08:04:02.930Z,8580.00
2022-09-07T08:05:02.882Z,8856.00
2022-09-07T08:06:02.839Z,7660.00
2022-09-07T08:07:08.607Z,7032.00
2022-09-07T08:08:02.753Z,6776.00
2022-09-07T08:09:02.691Z,6548.00
2022-09-07T08:10:02.649Z,6168.00
2022-09-07T08:11:02.621Z,6816.00
2022-09-07T08:12:02.549Z,7136.00
2022-09-07T08:13:02.503Z,4896.00
2022-09-07T08:14:02.459Z,4308.00
2022-09-07T08:15:02.408Z,4128.00
2022-09-07T08:16:02.385Z,3876.00
2022-09-07T08:17:02.331Z,4064.00
2022-09-07T08:18:02.283Z,4928.00
2022-09-07T08:19:02.220Z,4712.00
2022-09-07T08:20:02.174Z,4852.00
2022-09-07T08:21:02.128Z,4948.00
2022-09-07T08:22:02.085Z,6384.00
2022-09-07T08:23:02.047Z,7772.00
2022-09-07T08:24:01.989Z,8360.00
2022-09-07T08:25:01.966Z,7836.00
2022-09-07T08:26:01.895Z,8940.00
2022-09-07T08:27:01.847Z,10424.00
2022-09-07T08:28:01.814Z,9500.00
2022-09-07T08:29:01.755Z,9088.00
2022-09-07T08:30:01.709Z,9720.00
2022-09-07T08:31:01.661Z,9212.00
2022-09-07T08:32:01.718Z,8116.00
2022-09-07T08:33:01.587Z,8048.00
2022-09-07T08:34:01.526Z,7228.00
2022-09-07T08:35:01.485Z,6912.00
2022-09-07T08:36:01.436Z,6620.00
2022-09-07T08:37:01.390Z,6448.00
2022-09-07T08:38:01.364Z,5164.00
2022-09-07T08:39:01.300Z,4688.00
2022-09-07T08:40:01.310Z,4312.00
2022-09-07T08:41:01.210Z,4384.00
2022-09-07T08:42:01.164Z,6264.00
2022-09-07T08:43:01.130Z,5588.00
2022-09-07T08:44:01.070Z,6720.00
2022-09-07T08:45:01.034Z,6948.00
2022-09-07T08:46:00.984Z,8408.00
2022-09-07T08:47:01.003Z,8632.00
2022-09-07T08:48:00.905Z,8732.00
2022-09-07T08:49:00.846Z,8180.00
2022-09-07T08:50:00.800Z,8680.00
2022-09-07T08:51:00.763Z,9204.00
2022-09-07T08:52:00.711Z,8836.00
2022-09-07T08:53:00.685Z,6644.00
2022-09-07T08:54:00.646Z,6352.00
2022-09-07T08:55:00.654Z,8452.00
2022-09-07T08:56:00.548Z,7316.00
2022-09-07T08:58:00.460Z,5868.00
2022-09-07T08:59:00.399Z,7812.00
2022-09-07T09:00:00.364Z,7400.00
2022-09-07T09:03:30.011Z,8280.00
2022-09-07T09:05:17.231Z,7700.00
2022-09-07T09:06:00.239Z,7884.00
2022-09-07T09:06:11.038Z,7856.00
2022-09-07T09:07:00.300Z,8304.00
2022-09-07T09:08:00.028Z,7624.00
2022-09-07T09:08:59.966Z,6408.00
2022-09-07T09:09:59.922Z,7152.00
2022-09-07T09:10:59.893Z,6388.00
2022-09-07T09:11:59.835Z,8512.00
2022-09-07T09:12:59.798Z,8944.00
2022-09-07T09:13:59.751Z,7964.00
2022-09-07T09:14:59.702Z,7128.00
2022-09-07T09:15:59.726Z,7228.00
2022-09-07T09:16:59.619Z,7360.00
2022-09-07T09:17:59.574Z,7272.00
2022-09-07T09:19:09.016Z,7448.00
2022-09-07T09:19:59.518Z,7596.00
2022-09-07T09:20:59.496Z,7084.00
2022-09-07T09:21:59.427Z,6432.00
2022-09-07T09:22:59.386Z,6136.00
2022-09-07T09:23:59.341Z,6464.00
2022-09-07T09:24:59.292Z,6700.00
2022-09-07T09:25:59.249Z,6048.00
2022-09-07T09:26:59.231Z,5780.00
2022-09-07T09:27:59.184Z,5628.00
2022-09-07T09:28:59.101Z,6880.00
2022-09-07T09:29:59.075Z,6296.00
2022-09-07T09:30:59.056Z,6056.00
2022-09-07T09:31:59.014Z,5704.00
2022-09-07T09:32:58.948Z,7288.00
2022-09-07T09:33:58.889Z,6260.00
2022-09-07T09:34:58.862Z,5632.00
2022-09-07T09:35:58.807Z,5324.00
2022-09-07T09:36:58.796Z,5576.00
2022-09-07T09:37:58.724Z,5396.00
2022-09-07T09:38:58.687Z,5648.00
2022-09-07T09:40:02.209Z,5984.00
2022-09-07T09:40:58.616Z,5928.00
2022-09-07T09:41:58.540Z,5692.00
2022-09-07T09:42:58.478Z,5432.00
2022-09-07T09:43:58.452Z,5552.00
2022-09-07T09:44:58.427Z,5652.00
2022-09-07T09:46:13.954Z,6360.00
2022-09-07T09:47:58.325Z,6032.00
2022-09-07T09:48:58.241Z,6196.00
2022-09-07T09:49:58.174Z,6140.00
2022-09-07T09:52:58.074Z,4396.00
2022-09-07T09:53:58.063Z,4268.00
2022-09-07T09:55:17.297Z,4268.00
2022-09-07T09:55:57.931Z,4316.00
2022-09-07T09:56:57.884Z,5000.00
2022-09-07T09:59:05.449Z,4788.00
2022-09-07T10:00:01.466Z,5180.00
2022-09-07T10:03:59.524Z,6916.00
2022-09-07T10:04:57.581Z,5440.00
2022-09-07T10:05:57.478Z,5292.00
2022-09-07T10:06:57.447Z,5256.00
2022-09-07T10:07:57.400Z,5160.00
2022-09-07T10:08:57.392Z,6528.00
2022-09-07T10:09:57.314Z,4452.00
2022-09-07T10:10:57.282Z,4904.00
2022-09-07T10:12:12.623Z,6572.00
2022-09-07T10:12:57.191Z,7080.00
2022-09-07T10:13:57.164Z,5020.00
2022-09-07T10:14:57.179Z,6300.00
2022-09-07T10:15:57.092Z,6544.00
2022-09-07T10:16:56.996Z,4776.00
2022-09-07T10:17:57.090Z,4624.00
2022-09-07T10:18:56.960Z,6504.00
2022-09-07T10:19:56.881Z,4884.00
2022-09-07T10:20:56.836Z,6436.00
2022-09-07T10:21:56.800Z,6264.00
2022-09-07T10:22:56.729Z,6200.00
2022-09-07T10:23:56.738Z,6016.00
2022-09-07T10:24:56.717Z,5836.00
2022-09-07T10:25:56.641Z,6772.00
2022-09-07T10:26:56.574Z,6760.00
2022-09-07T10:27:56.557Z,6732.00
2022-09-07T10:29:12.016Z,6672.00
2022-09-07T10:29:56.481Z,6728.00
2022-09-07T10:30:56.459Z,5944.00
2022-09-07T10:31:56.364Z,6632.00
2022-09-07T10:32:56.307Z,6968.00
2022-09-07T10:34:56.254Z,6748.00
2022-09-07T10:35:56.183Z,5472.00
2022-09-07T10:36:56.167Z,6560.00
2022-09-07T10:37:56.468Z,4132.00
2022-09-07T10:38:56.089Z,4032.00
2022-09-07T10:40:00.093Z,4328.00
2022-09-07T10:40:55.977Z,6276.00
2022-09-07T10:41:55.910Z,5628.00
2022-09-07T10:43:55.870Z,3756.00
2022-09-07T10:44:55.837Z,3936.00
2022-09-07T10:45:55.879Z,5960.00
2022-09-07T10:46:57.341Z,4680.00
2022-09-07T10:47:55.695Z,4072.00
2022-09-07T10:48:55.644Z,5720.00
2022-09-07T10:50:55.556Z,5736.00
2022-09-07T10:51:55.509Z,4924.00
2022-09-07T10:52:55.484Z,5756.00
2022-09-07T10:54:55.469Z,6152.00
2022-09-07T10:55:55.343Z,5924.00
2022-09-07T10:56:55.301Z,5824.00
2022-09-07T10:57:55.279Z,5808.00
2022-09-07T10:59:03.565Z,3920.00
2022-09-07T11:00:10.921Z,3912.00
2022-09-07T11:00:55.125Z,5984.00
2022-09-07T11:01:55.137Z,5716.00
2022-09-07T11:03:55.009Z,5664.00
2022-09-07T11:04:54.946Z,5884.00
2022-09-07T11:05:54.948Z,5896.00
2022-09-07T11:06:54.906Z,5760.00
2022-09-07T11:07:54.834Z,5536.00
2022-09-07T11:09:54.766Z,5620.00
2022-09-07T11:10:54.714Z,5868.00
2022-09-07T11:12:02.725Z,6108.00
2022-09-07T11:12:54.660Z,6120.00
2022-09-07T11:14:12.043Z,6044.00
2022-09-07T11:14:54.546Z,5968.00
2022-09-07T11:15:54.594Z,5868.00
2022-09-07T11:16:54.636Z,4260.00
2022-09-07T11:17:54.422Z,5596.00
2022-09-07T11:19:35.118Z,5516.00
2022-09-07T11:19:54.350Z,5340.00
2022-09-07T11:20:54.311Z,4200.00
2022-09-07T11:21:57.402Z,5412.00
2022-09-07T11:22:54.218Z,5524.00
2022-09-07T11:23:54.181Z,5704.00
2022-09-07T11:25:54.099Z,5652.00
2022-09-07T11:26:54.097Z,5604.00
2022-09-07T11:27:54.002Z,5564.00
2022-09-07T11:29:53.924Z,5476.00
2022-09-07T11:30:59.180Z,5472.00
2022-09-07T11:31:53.845Z,5456.00
2022-09-07T11:32:53.870Z,5392.00
2022-09-07T11:34:53.725Z,5580.00
2022-09-07T11:35:53.688Z,5568.00
2022-09-07T11:36:53.661Z,5416.00
2022-09-07T11:37:53.633Z,5364.00
2022-09-07T11:38:53.611Z,5468.00
2022-09-07T11:39:53.613Z,5556.00
2022-09-07T11:40:53.507Z,5708.00
2022-09-07T11:41:53.459Z,5588.00
2022-09-07T11:42:53.424Z,5304.00
2022-09-07T11:43:53.406Z,2980.00
2022-09-07T11:44:53.344Z,3044.00
2022-09-07T11:45:53.369Z,4148.00
2022-09-07T11:46:53.271Z,5348.00
2022-09-07T11:47:53.223Z,5308.00
2022-09-07T11:48:53.169Z,5256.00
2022-09-07T11:49:56.100Z,5012.00
2022-09-07T11:50:53.137Z,4956.00
2022-09-07T11:51:54.204Z,5196.00
2022-09-07T11:52:54.050Z,5304.00
2022-09-07T11:53:52.979Z,5192.00
2022-09-07T11:54:53.022Z,5152.00
2022-09-07T11:55:52.892Z,5364.00
2022-09-07T11:56:52.890Z,5352.00
2022-09-07T11:57:55.626Z,5260.00
2022-09-07T11:58:52.778Z,5188.00
2022-09-07T11:59:52.749Z,5148.00
2022-09-07T12:00:52.702Z,5128.00
2022-09-07T12:01:52.697Z,5096.00
2022-09-07T12:03:00.749Z,5072.00
2022-09-07T12:03:52.695Z,5164.00
2022-09-07T12:04:56.126Z,5124.00
2022-09-07T12:05:52.525Z,5084.00
2022-09-07T12:06:52.486Z,4996.00
2022-09-07T12:07:52.455Z,5084.00
2022-09-07T12:08:52.424Z,5076.00
2022-09-07T12:09:52.358Z,5012.00
2022-09-07T12:10:52.323Z,5020.00
2022-09-07T12:11:52.261Z,4960.00
2022-09-07T12:12:52.280Z,4952.00
2022-09-07T12:13:52.213Z,4992.00
2022-09-07T12:14:52.197Z,4976.00
2022-09-07T12:15:52.151Z,4924.00
2022-09-07T12:16:52.102Z,4488.00
2022-09-07T12:17:52.046Z,4820.00
2022-09-07T12:18:51.985Z,4884.00
2022-09-07T12:19:51.987Z,4920.00
2022-09-07T12:20:51.926Z,4860.00
2022-09-07T12:21:51.894Z,4904.00
2022-09-07T12:22:51.848Z,4940.00
2022-09-07T12:23:51.834Z,4900.00
2022-09-07T12:24:51.840Z,4836.00
2022-09-07T12:25:51.739Z,4792.00
2022-09-07T12:26:51.682Z,4848.00
2022-09-07T12:27:51.643Z,4976.00
2022-09-07T12:28:51.641Z,5068.00
2022-09-07T12:29:51.560Z,4996.00
2022-09-07T12:30:51.526Z,4824.00
2022-09-07T12:32:07.436Z,4816.00
2022-09-07T12:32:53.921Z,4912.00
2022-09-07T12:33:51.420Z,3020.00
2022-09-07T12:34:51.532Z,5128.00
2022-09-07T12:35:51.333Z,2824.00
2022-09-07T12:36:51.296Z,2696.00
2022-09-07T12:37:51.248Z,2564.00
2022-09-07T12:38:51.206Z,2492.00
2022-09-07T12:39:51.374Z,3424.00
2022-09-07T12:40:51.155Z,3020.00
2022-09-07T12:42:32.020Z,3728.00
2022-09-07T12:42:51.056Z,4592.00
2022-09-07T12:43:51.002Z,2668.00
2022-09-07T12:44:50.968Z,4672.00
2022-09-07T12:45:51.001Z,4196.00
2022-09-07T12:46:50.932Z,4244.00
2022-09-07T12:47:50.847Z,4792.00
2022-09-07T12:48:50.835Z,4780.00
2022-09-07T12:49:50.767Z,4784.00
2022-09-07T12:50:51.047Z,2708.00
2022-09-07T12:52:15.118Z,3512.00
2022-09-07T12:52:50.665Z,4724.00
2022-09-07T12:53:55.543Z,4700.00
2022-09-07T12:55:10.057Z,4708.00
2022-09-07T12:57:29.150Z,4556.00
2022-09-07T12:57:50.475Z,4576.00
2022-09-07T12:58:50.405Z,4504.00
2022-09-07T12:59:50.366Z,4372.00
2022-09-07T13:00:50.377Z,4264.00
2022-09-07T13:01:50.458Z,4048.00
2022-09-07T13:02:50.300Z,4488.00
2022-09-07T13:03:51.569Z,4520.00
2022-09-07T13:04:50.276Z,4472.00
2022-09-07T13:05:50.132Z,4196.00
2022-09-07T13:07:05.591Z,4508.00
2022-09-07T13:07:50.047Z,2444.00
2022-09-07T13:08:50.048Z,2340.00
2022-09-07T13:09:49.991Z,2412.00
2022-09-07T13:10:49.942Z,4324.00
2022-09-07T13:11:49.931Z,4444.00
2022-09-07T13:12:53.402Z,4656.00
2022-09-07T13:14:08.733Z,4752.00